Time;durP1;ratioP1;P1;durP2;ratioP2;P2;SDS_P1;SDS_P2;PMS_P1;PMS_P2;Temp;Humidity;BMP_temperature;BMP_pressure;BME280_temperature;BME280_humidity;BME280_pressure;Samples;Min_cycle;Max_cycle;Signal;HPM_P1;HPM_P2
2021/03/02 00:01:58;;;;;;;8.45;6.50;;;;;;;;;;5051729;28;20090;-66
2021/03/02 00:04:24;;;;;;;6.97;6.28;;;;;;;;;;5051957;28;20028;-66
2021/03/02 00:06:51;;;;;;;6.90;5.15;;;;;;;;;;5050909;28;20055;-66
2021/03/02 00:09:17;;;;;;;6.85;5.97;;;;;;;;;;5052113;28;20422;-66
2021/03/02 00:11:45;;;;;;;6.95;5.93;;;;;;;;;;5051272;28;20091;-66
2021/03/02 00:14:11;;;;;;;12.93;6.70;;;;;;;;;;5052172;28;20029;-66
2021/03/02 00:16:38;;;;;;;8.20;6.55;;;;;;;;;;5051020;28;20025;-66
2021/03/02 00:19:14;;;;;;;9.18;7.25;;;;;;;;;;5051770;28;20068;-66
2021/03/02 00:21:42;;;;;;;6.78;6.07;;;;;;;;;;5050808;28;20498;-66
2021/03/02 00:24:13;;;;;;;7.57;6.82;;;;;;;;;;5059650;28;20036;-66
2021/03/02 00:26:44;;;;;;;10.80;6.95;;;;;;;;;;5070920;28;20040;-66
2021/03/02 00:29:11;;;;;;;10.93;6.55;;;;;;;;;;5071332;28;20033;-66
2021/03/02 00:31:37;;;;;;;10.27;6.97;;;;;;;;;;5070715;28;20078;-66
2021/03/02 00:34:03;;;;;;;9.25;6.20;;;;;;;;;;5071736;28;20036;-66
2021/03/02 00:36:29;;;;;;;7.35;6.60;;;;;;;;;;5070632;28;20067;-66
2021/03/02 00:38:55;;;;;;;10.35;7.22;;;;;;;;;;5071142;28;20112;-66
2021/03/02 00:41:21;;;;;;;8.55;7.60;;;;;;;;;;5071329;28;20047;-66
2021/03/02 00:43:49;;;;;;;7.30;6.22;;;;;;;;;;5070423;28;21057;-66
2021/03/02 00:46:15;;;;;;;8.30;6.60;;;;;;;;;;5071081;28;20468;-66
2021/03/02 00:48:41;;;;;;;7.75;6.43;;;;;;;;;;5070405;28;20024;-66
2021/03/02 00:51:08;;;;;;;8.75;7.53;;;;;;;;;;5070759;28;20050;-66
2021/03/02 00:53:34;;;;;;;13.23;8.60;;;;;;;;;;5070567;28;20446;-66
2021/03/02 00:56:00;;;;;;;7.40;6.63;;;;;;;;;;5070945;28;20024;-66
2021/03/02 00:58:26;;;;;;;9.60;7.22;;;;;;;;;;5070977;28;20021;-66
2021/03/02 01:00:52;;;;;;;10.18;8.05;;;;;;;;;;5070033;28;20099;-66
2021/03/02 01:03:18;;;;;;;8.10;7.30;;;;;;;;;;5070904;28;20032;-66
2021/03/02 01:05:44;;;;;;;11.30;7.70;;;;;;;;;;5069341;28;20029;-66
2021/03/02 01:08:10;;;;;;;10.43;8.45;;;;;;;;;;5070698;28;20060;-66
2021/03/02 01:10:36;;;;;;;11.75;7.70;;;;;;;;;;5069885;28;20386;-66
2021/03/02 01:13:02;;;;;;;9.82;7.35;;;;;;;;;;5070824;28;20115;-66
2021/03/02 01:15:28;;;;;;;11.90;8.57;;;;;;;;;;5070240;28;20376;-66
2021/03/02 01:17:54;;;;;;;10.77;7.20;;;;;;;;;;5070442;28;20020;-66
2021/03/02 01:20:20;;;;;;;9.70;7.65;;;;;;;;;;5070236;28;20032;-66
2021/03/02 01:22:46;;;;;;;9.20;8.27;;;;;;;;;;5069815;28;20028;-66
2021/03/02 01:25:13;;;;;;;10.23;7.10;;;;;;;;;;5053329;28;20040;-66
2021/03/02 01:27:39;;;;;;;12.90;9.32;;;;;;;;;;5049864;28;20037;-66
2021/03/02 01:30:09;;;;;;;9.75;8.15;;;;;;;;;;5049962;28;20231;-66
2021/03/02 01:32:35;;;;;;;9.65;8.70;;;;;;;;;;5049621;28;20032;-66
2021/03/02 01:35:02;;;;;;;10.73;7.60;;;;;;;;;;5050109;28;20610;-66
2021/03/02 01:37:28;;;;;;;13.55;7.85;;;;;;;;;;5049605;28;20055;-66
2021/03/02 01:39:54;;;;;;;13.18;9.48;;;;;;;;;;5049588;28;20079;-66
2021/03/02 01:42:20;;;;;;;9.88;8.07;;;;;;;;;;5050053;28;20025;-66
2021/03/02 01:44:46;;;;;;;11.45;8.10;;;;;;;;;;5049686;28;20029;-66
2021/03/02 01:47:12;;;;;;;8.23;7.07;;;;;;;;;;5049949;28;20029;-66
2021/03/02 01:49:38;;;;;;;11.52;7.85;;;;;;;;;;5049140;28;20067;-66
2021/03/02 01:52:04;;;;;;;11.32;8.77;;;;;;;;;;5049909;28;20388;-66
2021/03/02 01:54:30;;;;;;;10.20;7.88;;;;;;;;;;5049939;28;20029;-66
2021/03/02 01:56:57;;;;;;;8.68;7.07;;;;;;;;;;5049833;28;20372;-66
2021/03/02 01:59:23;;;;;;;11.23;7.95;;;;;;;;;;5049961;28;20116;-66
2021/03/02 02:01:50;;;;;;;10.70;7.38;;;;;;;;;;5049061;28;20037;-66
2021/03/02 02:04:19;;;;;;;10.00;8.27;;;;;;;;;;5050083;28;20060;-66
2021/03/02 02:07:02;;;;;;;12.23;9.10;;;;;;;;;;5048642;28;20045;-66
2021/03/02 02:09:30;;;;;;;7.57;6.82;;;;;;;;;;5049412;28;20053;-66
2021/03/02 02:12:03;;;;;;;11.35;7.50;;;;;;;;;;5049252;28;20033;-66
2021/03/02 02:14:32;;;;;;;9.50;7.43;;;;;;;;;;5049668;28;20052;-66
2021/03/02 02:17:20;;;;;;;9.55;8.35;;;;;;;;;;5049424;28;20033;-66
2021/03/02 02:19:48;;;;;;;13.07;8.15;;;;;;;;;;5048622;28;20037;-66
2021/03/02 02:22:22;;;;;;;8.75;7.03;;;;;;;;;;5049124;28;20059;-66
2021/03/02 02:25:24;;;;;;;8.93;7.43;;;;;;;;;;5062855;28;20201;-66
2021/03/02 02:27:55;;;;;;;11.82;7.55;;;;;;;;;;5026599;28;20065;-66
2021/03/02 02:30:21;;;;;;;8.88;7.93;;;;;;;;;;5061748;28;20451;-66
2021/03/02 02:32:49;;;;;;;8.60;6.93;;;;;;;;;;5067512;28;20059;-66
2021/03/02 02:35:16;;;;;;;8.80;6.72;;;;;;;;;;5069135;28;20097;-66
2021/03/02 02:37:44;;;;;;;8.73;6.60;;;;;;;;;;5068913;28;20033;-66
2021/03/02 02:40:13;;;;;;;9.85;6.88;;;;;;;;;;5069144;28;20217;-66
2021/03/02 02:42:40;;;;;;;9.13;7.30;;;;;;;;;;5068456;28;20032;-66
2021/03/02 02:45:07;;;;;;;8.52;6.45;;;;;;;;;;5069396;28;20510;-66
2021/03/02 02:47:33;;;;;;;11.63;7.63;;;;;;;;;;5068710;28;20045;-66
2021/03/02 02:50:00;;;;;;;7.78;7.07;;;;;;;;;;5071534;28;20059;-66
2021/03/02 02:52:26;;;;;;;7.45;6.70;;;;;;;;;;5072805;28;20064;-66
2021/03/02 02:54:54;;;;;;;8.02;6.10;;;;;;;;;;5072592;28;20496;-66
2021/03/02 02:57:20;;;;;;;8.52;7.68;;;;;;;;;;5072758;28;20037;-66
2021/03/02 02:59:48;;;;;;;8.63;6.97;;;;;;;;;;5072122;28;20044;-66
2021/03/02 03:02:18;;;;;;;8.15;6.68;;;;;;;;;;5072627;28;20154;-66
2021/03/02 03:04:46;;;;;;;7.72;7.03;;;;;;;;;;5072091;28;20352;-66
2021/03/02 03:07:23;;;;;;;8.30;7.50;;;;;;;;;;5072134;28;20105;-66
2021/03/02 03:09:52;;;;;;;11.10;6.78;;;;;;;;;;5071834;28;20552;-66
2021/03/02 03:12:19;;;;;;;11.13;6.93;;;;;;;;;;5072721;28;20031;-66
2021/03/02 03:14:51;;;;;;;8.85;6.28;;;;;;;;;;5072262;28;20032;-66
2021/03/02 03:17:18;;;;;;;8.13;7.30;;;;;;;;;;5072755;28;20028;-66
2021/03/02 03:19:45;;;;;;;12.55;6.80;;;;;;;;;;5072087;28;20478;-66
2021/03/02 03:22:12;;;;;;;6.32;5.72;;;;;;;;;;5072646;28;20060;-66
2021/03/02 03:24:39;;;;;;;10.43;6.15;;;;;;;;;;5060004;28;20025;-66
2021/03/02 03:27:06;;;;;;;7.05;5.72;;;;;;;;;;5052494;28;20032;-66
2021/03/02 03:29:32;;;;;;;6.88;5.85;;;;;;;;;;5051849;28;20495;-67
2021/03/02 03:31:59;;;;;;;5.45;4.80;;;;;;;;;;5052159;28;20032;-66
2021/03/02 03:34:25;;;;;;;7.15;6.03;;;;;;;;;;5052541;28;20124;-66
2021/03/02 03:36:52;;;;;;;8.10;5.97;;;;;;;;;;5051930;28;20117;-66
2021/03/02 03:39:18;;;;;;;6.53;5.53;;;;;;;;;;5052447;28;20025;-65
2021/03/02 03:41:44;;;;;;;5.25;4.72;;;;;;;;;;5051695;28;20063;-66
2021/03/02 03:44:10;;;;;;;5.63;5.03;;;;;;;;;;5052576;28;20021;-66
2021/03/02 03:46:36;;;;;;;6.88;5.90;;;;;;;;;;5051794;28;20559;-66
2021/03/02 03:49:03;;;;;;;6.47;5.85;;;;;;;;;;5052286;28;20381;-65
2021/03/02 03:51:30;;;;;;;6.40;5.43;;;;;;;;;;5051512;28;20484;-66
2021/03/02 03:53:56;;;;;;;5.68;5.07;;;;;;;;;;5052302;28;20017;-66
2021/03/02 03:56:23;;;;;;;8.68;5.15;;;;;;;;;;5052060;28;20025;-65
2021/03/02 03:58:49;;;;;;;8.48;6.63;;;;;;;;;;5051470;28;20032;-66
2021/03/02 04:01:16;;;;;;;7.85;5.68;;;;;;;;;;5051104;28;20028;-66
2021/03/02 04:03:42;;;;;;;4.80;4.28;;;;;;;;;;5051333;28;20025;-66
2021/03/02 04:06:08;;;;;;;8.48;6.85;;;;;;;;;;5051457;28;20044;-65
2021/03/02 04:08:35;;;;;;;7.03;6.32;;;;;;;;;;5051271;28;20116;-66
2021/03/02 04:11:01;;;;;;;7.78;6.20;;;;;;;;;;5051680;28;20395;-65
2021/03/02 04:13:28;;;;;;;6.72;6.13;;;;;;;;;;5051652;28;20035;-66
2021/03/02 04:15:54;;;;;;;6.22;5.30;;;;;;;;;;5051552;28;20499;-66
2021/03/02 04:18:20;;;;;;;7.70;6.03;;;;;;;;;;5051947;28;20029;-66
2021/03/02 04:20:48;;;;;;;8.43;7.60;;;;;;;;;;5050710;28;20087;-65
2021/03/02 04:23:15;;;;;;;5.88;4.78;;;;;;;;;;5052382;28;20029;-66
2021/03/02 04:25:41;;;;;;;7.05;5.28;;;;;;;;;;5070979;28;20475;-66
2021/03/02 04:28:07;;;;;;;4.88;4.38;;;;;;;;;;5071382;28;20438;-66
2021/03/02 04:30:34;;;;;;;6.15;5.20;;;;;;;;;;5070679;28;20032;-66
2021/03/02 04:33:00;;;;;;;6.47;4.88;;;;;;;;;;5071371;28;20032;-66
2021/03/02 04:35:26;;;;;;;5.75;4.38;;;;;;;;;;5071071;28;20032;-66
2021/03/02 04:37:52;;;;;;;6.70;5.07;;;;;;;;;;5071081;28;20024;-66
2021/03/02 04:40:19;;;;;;;5.07;4.57;;;;;;;;;;5071170;28;20040;-66
2021/03/02 04:42:45;;;;;;;10.90;6.18;;;;;;;;;;5070583;28;20032;-66
2021/03/02 04:45:11;;;;;;;7.28;4.90;;;;;;;;;;5071364;28;20496;-66
2021/03/02 04:47:38;;;;;;;6.18;4.47;;;;;;;;;;5070518;28;20174;-66
2021/03/02 04:50:05;;;;;;;5.30;4.80;;;;;;;;;;5070866;28;20440;-65
2021/03/02 04:52:31;;;;;;;6.40;5.53;;;;;;;;;;5070270;28;20032;-66
2021/03/02 04:54:57;;;;;;;6.25;5.10;;;;;;;;;;5070912;28;20073;-66
2021/03/02 04:57:24;;;;;;;8.18;4.90;;;;;;;;;;5071096;28;20110;-66
2021/03/02 04:59:50;;;;;;;8.55;5.75;;;;;;;;;;5069973;28;20070;-66
2021/03/02 05:02:16;;;;;;;5.35;4.18;;;;;;;;;;5070615;28;20514;-66
2021/03/02 05:04:42;;;;;;;7.57;5.22;;;;;;;;;;5070243;28;20048;-66
2021/03/02 05:07:08;;;;;;;5.85;4.50;;;;;;;;;;5070249;28;20106;-66
2021/03/02 05:09:34;;;;;;;5.03;4.53;;;;;;;;;;5069704;28;20060;-66
2021/03/02 05:12:00;;;;;;;5.05;4.25;;;;;;;;;;5069832;28;20025;-66
2021/03/02 05:14:26;;;;;;;6.20;4.38;;;;;;;;;;5070690;28;20036;-66
2021/03/02 05:16:52;;;;;;;5.05;4.55;;;;;;;;;;5070239;28;20067;-66
2021/03/02 05:19:18;;;;;;;7.57;4.55;;;;;;;;;;5070562;28;20032;-66
2021/03/02 05:21:44;;;;;;;5.57;4.63;;;;;;;;;;5069651;28;20078;-66
2021/03/02 05:24:11;;;;;;;5.15;4.28;;;;;;;;;;5062242;28;20104;-66
2021/03/02 05:26:37;;;;;;;3.80;3.45;;;;;;;;;;5049756;28;20025;-66
2021/03/02 05:29:03;;;;;;;6.03;5.10;;;;;;;;;;5050165;28;20032;-66
2021/03/02 05:31:29;;;;;;;6.07;4.30;;;;;;;;;;5049700;28;20039;-66
2021/03/02 05:33:55;;;;;;;7.80;4.22;;;;;;;;;;5050296;28;20051;-66
2021/03/02 05:36:21;;;;;;;6.13;4.55;;;;;;;;;;5050080;28;20029;-66
2021/03/02 05:38:47;;;;;;;5.82;4.47;;;;;;;;;;5049772;28;20825;-66
2021/03/02 05:41:13;;;;;;;7.72;4.43;;;;;;;;;;5050281;28;20460;-66
2021/03/02 05:43:42;;;;;;;5.80;4.80;;;;;;;;;;5049399;28;20096;-66
2021/03/02 05:46:09;;;;;;;6.10;4.32;;;;;;;;;;5050189;28;20029;-66
2021/03/02 05:48:35;;;;;;;5.20;4.70;;;;;;;;;;5049447;28;20029;-66
2021/03/02 05:51:01;;;;;;;6.85;4.13;;;;;;;;;;5050092;28;20423;-66
2021/03/02 05:53:28;;;;;;;5.85;5.07;;;;;;;;;;5049971;28;20112;-66
2021/03/02 05:55:54;;;;;;;6.28;4.07;;;;;;;;;;5049885;28;20037;-66
2021/03/02 05:58:20;;;;;;;5.32;4.63;;;;;;;;;;5050152;28;20087;-66
2021/03/02 06:00:47;;;;;;;7.53;5.25;;;;;;;;;;5049339;28;20077;-66
2021/03/02 06:03:13;;;;;;;6.65;4.53;;;;;;;;;;5049940;28;20032;-66
2021/03/02 06:05:39;;;;;;;5.13;3.85;;;;;;;;;;5048749;28;20033;-66
2021/03/02 06:08:07;;;;;;;8.05;4.65;;;;;;;;;;5049655;28;20041;-66
2021/03/02 06:10:34;;;;;;;6.55;4.47;;;;;;;;;;5049251;28;20025;-66
2021/03/02 06:13:00;;;;;;;4.07;3.67;;;;;;;;;;5049714;28;20097;-66
2021/03/02 06:15:27;;;;;;;6.53;4.68;;;;;;;;;;5049642;28;20082;-66
2021/03/02 06:18:09;;;;;;;8.38;4.80;;;;;;;;;;5049591;28;20039;-66
2021/03/02 06:20:36;;;;;;;4.22;3.72;;;;;;;;;;5048664;28;20507;-66
2021/03/02 06:23:21;;;;;;;4.50;4.10;;;;;;;;;;5051108;28;20039;-65
2021/03/02 06:25:48;;;;;;;4.85;3.75;;;;;;;;;;5033149;28;20036;-66
2021/03/02 06:28:14;;;;;;;5.05;4.55;;;;;;;;;;5033688;28;20555;-66
2021/03/02 06:30:40;;;;;;;7.68;4.85;;;;;;;;;;5032741;28;20061;-66
2021/03/02 06:33:16;;;;;;;6.35;4.05;;;;;;;;;;5034021;28;20087;-66
2021/03/02 06:35:44;;;;;;;5.10;3.67;;;;;;;;;;5032819;28;20029;-66
2021/03/02 06:38:10;;;;;;;5.47;3.92;;;;;;;;;;5033190;28;20025;-66
2021/03/02 06:40:39;;;;;;;5.90;4.30;;;;;;;;;;5032876;28;20026;-66
2021/03/02 06:43:06;;;;;;;7.63;5.30;;;;;;;;;;5034429;28;20033;-66
2021/03/02 06:45:32;;;;;;;7.43;5.88;;;;;;;;;;5050832;28;20499;-66
2021/03/02 06:48:02;;;;;;;14.82;7.53;;;;;;;;;;5059002;28;20028;-66
2021/03/02 06:50:28;;;;;;;10.15;5.10;;;;;;;;;;5072548;28;20029;-66
2021/03/02 06:52:54;;;;;;;8.90;6.40;;;;;;;;;;5072867;28;20032;-66
2021/03/02 06:55:25;;;;;;;7.75;4.82;;;;;;;;;;5073228;28;20028;-66
2021/03/02 06:57:51;;;;;;;8.73;4.97;;;;;;;;;;5072815;28;20447;-66
2021/03/02 07:00:30;;;;;;;7.30;4.97;;;;;;;;;;5056788;28;20100;-65
2021/03/02 07:02:56;;;;;;;6.95;4.60;;;;;;;;;;5036856;28;20029;-65
2021/03/02 07:05:22;;;;;;;9.30;6.10;;;;;;;;;;5043477;28;20038;-65
2021/03/02 07:07:55;;;;;;;8.05;5.85;;;;;;;;;;5031000;28;20148;-66
2021/03/02 07:10:21;;;;;;;8.98;4.32;;;;;;;;;;5058395;28;20104;-65
2021/03/02 07:12:47;;;;;;;9.65;5.30;;;;;;;;;;5060737;28;20029;-65
2021/03/02 07:15:17;;;;;;;8.15;5.68;;;;;;;;;;5039991;28;20533;-66
2021/03/02 07:17:44;;;;;;;8.57;4.97;;;;;;;;;;5042365;28;21374;-66
2021/03/02 07:20:11;;;;;;;8.75;4.85;;;;;;;;;;5044744;28;20143;-66
2021/03/02 07:22:38;;;;;;;7.07;5.07;;;;;;;;;;5044384;28;20035;-65
2021/03/02 07:25:08;;;;;;;11.70;6.18;;;;;;;;;;5045216;28;20468;-66
2021/03/02 07:27:35;;;;;;;8.45;4.90;;;;;;;;;;5043231;28;20057;-67
2021/03/02 07:30:01;;;;;;;6.63;5.93;;;;;;;;;;5048128;28;20487;-66
2021/03/02 07:32:31;;;;;;;9.73;5.90;;;;;;;;;;5060229;28;20024;-70
2021/03/02 07:34:57;;;;;;;12.32;7.80;;;;;;;;;;5038997;28;20050;-68
2021/03/02 07:37:25;;;;;;;16.60;7.97;;;;;;;;;;5058679;28;20064;-67
2021/03/02 07:40:03;;;;;;;15.32;7.95;;;;;;;;;;5050071;28;20090;-67
2021/03/02 07:42:29;;;;;;;14.55;7.85;;;;;;;;;;5041836;28;20032;-67
2021/03/02 07:45:06;;;;;;;18.40;8.35;;;;;;;;;;5070528;28;20475;-67
2021/03/02 07:47:52;;;;;;;14.02;7.97;;;;;;;;;;5053085;28;20033;-67
2021/03/02 07:50:20;;;;;;;10.65;7.10;;;;;;;;;;5052266;28;20036;-67
2021/03/02 07:52:47;;;;;;;15.68;8.30;;;;;;;;;;5038531;28;20021;-67
2021/03/02 07:55:17;;;;;;;16.55;9.43;;;;;;;;;;5048550;28;20078;-67
2021/03/02 07:57:43;;;;;;;21.65;8.60;;;;;;;;;;5041475;28;20033;-67
2021/03/02 08:00:15;;;;;;;11.63;9.43;;;;;;;;;;5049902;28;20040;-67
2021/03/02 08:02:41;;;;;;;23.33;8.27;;;;;;;;;;5049697;28;20040;-67
2021/03/02 08:05:25;;;;;;;9.50;8.50;;;;;;;;;;5049553;28;20032;-71
2021/03/02 08:08:11;;;;;;;15.80;8.75;;;;;;;;;;5043682;28;20080;-66
2021/03/02 08:10:37;;;;;;;13.38;7.38;;;;;;;;;;5050659;28;20036;-67
2021/03/02 08:13:22;;;;;;;12.20;6.82;;;;;;;;;;5053770;28;20060;-67
2021/03/02 08:15:48;;;;;;;11.55;8.00;;;;;;;;;;5057041;28;20276;-67
2021/03/02 08:18:34;;;;;;;21.27;7.95;;;;;;;;;;5047611;28;20041;-67
2021/03/02 08:21:04;;;;;;;12.65;7.55;;;;;;;;;;5057472;28;20044;-67
2021/03/02 08:23:56;;;;;;;11.60;7.63;;;;;;;;;;5056120;28;20056;-68
2021/03/02 08:26:22;;;;;;;11.25;6.30;;;;;;;;;;5039754;28;20029;-67
2021/03/02 08:29:06;;;;;;;10.02;7.03;;;;;;;;;;5047474;28;20539;-67
2021/03/02 08:31:33;;;;;;;11.25;6.68;;;;;;;;;;5047819;28;20423;-67
2021/03/02 08:33:59;;;;;;;8.85;6.90;;;;;;;;;;5049363;28;20038;-68
2021/03/02 08:36:26;;;;;;;7.70;5.85;;;;;;;;;;5047757;28;20099;-67
2021/03/02 08:38:52;;;;;;;6.50;5.85;;;;;;;;;;5049600;28;20425;-73
2021/03/02 08:41:28;;;;;;;10.93;5.75;;;;;;;;;;5050561;28;20087;-68
2021/03/02 08:43:54;;;;;;;10.38;7.40;;;;;;;;;;5049114;28;20028;-66
2021/03/02 08:46:24;;;;;;;7.78;6.97;;;;;;;;;;5044159;28;20127;-67
2021/03/02 08:48:50;;;;;;;16.05;7.63;;;;;;;;;;5052804;28;20079;-65
2021/03/02 08:51:19;;;;;;;7.10;5.45;;;;;;;;;;5051080;28;20092;-67
2021/03/02 08:53:49;;;;;;;12.25;5.28;;;;;;;;;;5051904;28;20621;-67
2021/03/02 08:56:15;;;;;;;7.43;5.55;;;;;;;;;;5049057;28;20078;-68
2021/03/02 08:58:46;;;;;;;12.05;6.00;;;;;;;;;;5045742;28;20032;-67
2021/03/02 09:01:16;;;;;;;10.48;6.22;;;;;;;;;;5029457;28;20024;-67
2021/03/02 09:03:44;;;;;;;6.43;5.57;;;;;;;;;;5056789;28;20031;-67
2021/03/02 09:06:11;;;;;;;11.50;6.28;;;;;;;;;;5046658;28;20053;-67
2021/03/02 09:08:56;;;;;;;10.05;6.45;;;;;;;;;;5049582;28;20500;-67
2021/03/02 09:11:42;;;;;;;10.25;6.57;;;;;;;;;;5047227;28;20071;-67
2021/03/02 09:14:19;;;;;;;7.60;4.78;;;;;;;;;;5047444;28;20030;-67
2021/03/02 09:16:48;;;;;;;7.97;5.15;;;;;;;;;;5025388;28;20047;-67
2021/03/02 09:19:15;;;;;;;18.80;6.32;;;;;;;;;;5047504;28;20045;-66
2021/03/02 09:21:44;;;;;;;8.50;6.07;;;;;;;;;;5046205;28;20104;-67
2021/03/02 09:24:13;;;;;;;10.32;5.30;;;;;;;;;;5046206;28;20079;-68
2021/03/02 09:26:39;;;;;;;9.90;5.35;;;;;;;;;;5045500;28;20037;-67
2021/03/02 09:29:07;;;;;;;8.70;5.53;;;;;;;;;;5046965;28;20056;-67
2021/03/02 09:31:34;;;;;;;7.70;5.07;;;;;;;;;;5040562;28;20431;-67
2021/03/02 09:34:00;;;;;;;7.93;6.00;;;;;;;;;;5043725;28;20474;-67
2021/03/02 09:36:27;;;;;;;8.68;5.00;;;;;;;;;;5043957;28;20107;-67
2021/03/02 09:38:54;;;;;;;10.18;5.13;;;;;;;;;;5042965;28;20083;-67
2021/03/02 09:41:33;;;;;;;8.40;6.10;;;;;;;;;;5043404;28;20045;-65
2021/03/02 09:44:15;;;;;;;7.03;5.82;;;;;;;;;;5048990;28;20112;-67
2021/03/02 09:46:41;;;;;;;11.68;6.43;;;;;;;;;;5044773;28;20044;-67
2021/03/02 09:49:07;;;;;;;11.63;6.63;;;;;;;;;;5056804;28;20025;-67
2021/03/02 09:51:34;;;;;;;17.45;7.18;;;;;;;;;;5046835;28;20091;-66
2021/03/02 09:54:12;;;;;;;9.13;6.18;;;;;;;;;;5048735;28;20144;-66
2021/03/02 09:56:38;;;;;;;10.20;6.68;;;;;;;;;;5047395;28;20052;-67
2021/03/02 09:59:05;;;;;;;6.43;5.00;;;;;;;;;;5050964;28;20035;-66
2021/03/02 10:01:32;;;;;;;8.65;6.63;;;;;;;;;;5047883;28;20392;-67
2021/03/02 10:04:05;;;;;;;8.95;5.78;;;;;;;;;;5041783;28;21381;-66
2021/03/02 10:06:31;;;;;;;9.63;5.90;;;;;;;;;;5040431;28;20717;-66
2021/03/02 10:08:59;;;;;;;9.07;6.07;;;;;;;;;;5042448;28;20047;-67
2021/03/02 10:11:27;;;;;;;12.38;6.25;;;;;;;;;;5041576;28;20041;-68
2021/03/02 10:13:54;;;;;;;13.07;6.20;;;;;;;;;;5041993;28;20044;-67
2021/03/02 10:16:28;;;;;;;8.23;6.03;;;;;;;;;;5040942;28;20464;-67
2021/03/02 10:19:05;;;;;;;13.45;6.75;;;;;;;;;;5042487;28;20037;-67
2021/03/02 10:21:37;;;;;;;11.65;7.63;;;;;;;;;;5041947;28;20032;-65
2021/03/02 10:24:03;;;;;;;11.75;5.95;;;;;;;;;;5043156;28;20029;-65
2021/03/02 10:26:31;;;;;;;9.32;5.82;;;;;;;;;;5040042;28;20037;-66
2021/03/02 10:28:58;;;;;;;20.27;7.50;;;;;;;;;;5042080;28;20400;-66
2021/03/02 10:31:24;;;;;;;13.63;6.38;;;;;;;;;;5043126;28;20033;-66
2021/03/02 10:33:50;;;;;;;9.68;6.28;;;;;;;;;;5039326;28;20040;-67
2021/03/02 10:36:20;;;;;;;8.75;5.10;;;;;;;;;;5041848;28;20069;-66
2021/03/02 10:38:47;;;;;;;7.07;5.45;;;;;;;;;;5040187;28;20032;-66
2021/03/02 10:41:13;;;;;;;12.05;5.93;;;;;;;;;;5041308;28;20044;-65
2021/03/02 10:43:39;;;;;;;9.23;6.53;;;;;;;;;;5041277;28;20040;-65
2021/03/02 10:46:05;;;;;;;6.10;5.47;;;;;;;;;;5044840;28;20025;-65
2021/03/02 10:48:31;;;;;;;5.45;4.90;;;;;;;;;;5040139;28;20052;-66
2021/03/02 10:50:57;;;;;;;14.18;6.18;;;;;;;;;;5043039;28;20044;-66
2021/03/02 10:53:23;;;;;;;9.32;5.07;;;;;;;;;;5043439;28;20035;-65
2021/03/02 10:55:50;;;;;;;7.70;5.03;;;;;;;;;;5040873;28;20056;-66
2021/03/02 10:58:16;;;;;;;8.77;4.85;;;;;;;;;;5039427;28;20033;-66
2021/03/02 11:00:42;;;;;;;8.05;5.35;;;;;;;;;;5040847;28;20025;-66
2021/03/02 11:03:08;;;;;;;18.35;6.15;;;;;;;;;;5042788;28;20111;-66
2021/03/02 11:05:35;;;;;;;10.13;5.32;;;;;;;;;;5044150;28;20036;-66
2021/03/02 11:08:01;;;;;;;6.85;5.80;;;;;;;;;;5040956;28;20412;-66
2021/03/02 11:10:28;;;;;;;8.60;5.10;;;;;;;;;;5036678;28;20507;-66
2021/03/02 11:12:54;;;;;;;8.32;5.28;;;;;;;;;;5045771;28;20029;-66
2021/03/02 11:15:20;;;;;;;9.43;5.53;;;;;;;;;;5036743;28;20045;-66
2021/03/02 11:17:46;;;;;;;9.55;4.35;;;;;;;;;;5039333;28;20143;-66
2021/03/02 11:20:12;;;;;;;7.53;5.05;;;;;;;;;;5043799;28;20036;-66
2021/03/02 11:22:38;;;;;;;9.60;5.28;;;;;;;;;;5044909;28;20036;-67
2021/03/02 11:25:05;;;;;;;10.18;5.40;;;;;;;;;;5044046;28;20036;-68
2021/03/02 11:27:31;;;;;;;7.65;4.75;;;;;;;;;;5041691;28;20132;-67
2021/03/02 11:29:57;;;;;;;6.43;5.25;;;;;;;;;;5044293;28;20134;-66
2021/03/02 11:32:23;;;;;;;8.90;6.18;;;;;;;;;;5042774;28;20032;-67
2021/03/02 11:34:49;;;;;;;11.52;5.32;;;;;;;;;;5044495;28;20039;-67
2021/03/02 11:37:15;;;;;;;10.95;6.28;;;;;;;;;;5043313;28;20371;-67
2021/03/02 11:39:41;;;;;;;12.88;6.55;;;;;;;;;;5044045;28;20080;-67
2021/03/02 11:42:07;;;;;;;12.85;5.63;;;;;;;;;;5043540;28;20096;-67
2021/03/02 11:44:34;;;;;;;13.30;6.43;;;;;;;;;;5044722;28;20112;-68
2021/03/02 11:47:00;;;;;;;8.95;5.70;;;;;;;;;;5043440;28;20198;-67
2021/03/02 11:49:26;;;;;;;8.10;6.05;;;;;;;;;;5044909;28;20411;-67
2021/03/02 11:51:52;;;;;;;9.18;6.45;;;;;;;;;;5044326;28;20037;-67
2021/03/02 11:54:18;;;;;;;9.02;5.55;;;;;;;;;;5027045;28;20156;-67
2021/03/02 11:56:44;;;;;;;8.10;6.85;;;;;;;;;;5041850;28;20037;-68
2021/03/02 11:59:10;;;;;;;14.57;7.15;;;;;;;;;;5043624;28;20503;-67
2021/03/02 12:01:36;;;;;;;12.68;7.55;;;;;;;;;;5042119;28;20109;-67
2021/03/02 12:04:03;;;;;;;10.57;6.68;;;;;;;;;;5045590;28;20077;-67
2021/03/02 12:06:29;;;;;;;8.90;6.32;;;;;;;;;;5042842;28;20056;-67
2021/03/02 12:08:55;;;;;;;12.77;8.18;;;;;;;;;;5043406;28;20467;-67
2021/03/02 12:11:21;;;;;;;15.65;9.13;;;;;;;;;;5045304;28;20369;-67
2021/03/02 12:13:47;;;;;;;18.17;9.98;;;;;;;;;;5043984;28;20099;-67
2021/03/02 12:16:13;;;;;;;16.13;10.50;;;;;;;;;;5044024;28;20470;-67
2021/03/02 12:18:39;;;;;;;14.27;9.65;;;;;;;;;;5043068;28;20091;-67
2021/03/02 12:21:05;;;;;;;17.23;11.20;;;;;;;;;;5044608;28;20028;-67
2021/03/02 12:23:31;;;;;;;19.75;9.38;;;;;;;;;;5044794;28;20119;-67
2021/03/02 12:25:57;;;;;;;28.88;10.90;;;;;;;;;;5043463;28;20033;-67
2021/03/02 12:28:23;;;;;;;12.90;8.93;;;;;;;;;;5040371;28;20045;-66
2021/03/02 12:30:49;;;;;;;17.38;9.50;;;;;;;;;;5043331;28;20087;-66
2021/03/02 12:33:15;;;;;;;14.60;9.27;;;;;;;;;;5040190;28;20037;-67
2021/03/02 12:35:41;;;;;;;25.60;10.68;;;;;;;;;;5042301;28;20076;-68
2021/03/02 12:38:07;;;;;;;10.75;6.30;;;;;;;;;;5043219;28;20455;-66
2021/03/02 12:40:34;;;;;;;15.63;8.73;;;;;;;;;;5043672;28;20028;-66
2021/03/02 12:43:00;;;;;;;11.98;7.82;;;;;;;;;;5040294;28;20060;-66
2021/03/02 12:45:26;;;;;;;11.73;7.53;;;;;;;;;;5042589;28;20033;-66
2021/03/02 12:47:52;;;;;;;13.63;8.50;;;;;;;;;;5040525;28;20705;-66
2021/03/02 12:50:18;;;;;;;10.02;7.63;;;;;;;;;;5044060;28;20068;-66
2021/03/02 12:52:44;;;;;;;11.00;8.75;;;;;;;;;;5043805;28;20029;-67
2021/03/02 12:55:10;;;;;;;12.45;7.75;;;;;;;;;;5036272;28;20448;-66
2021/03/02 12:57:37;;;;;;;11.82;7.05;;;;;;;;;;5041427;28;20039;-67
2021/03/02 13:00:07;;;;;;;9.80;7.18;;;;;;;;;;5043021;28;20435;-66
2021/03/02 13:02:36;;;;;;;15.73;7.75;;;;;;;;;;5043671;28;20041;-67
2021/03/02 13:05:03;;;;;;;10.52;7.00;;;;;;;;;;5040728;28;20033;-67
2021/03/02 13:07:29;;;;;;;14.27;7.05;;;;;;;;;;5039286;28;20060;-67
2021/03/02 13:09:57;;;;;;;10.85;7.13;;;;;;;;;;5041070;28;20550;-67
2021/03/02 13:12:23;;;;;;;14.98;7.07;;;;;;;;;;5041157;28;20579;-67
2021/03/02 13:14:50;;;;;;;15.48;7.00;;;;;;;;;;5041324;28;20037;-68
2021/03/02 13:17:17;;;;;;;25.50;8.52;;;;;;;;;;5039322;28;20499;-68
2021/03/02 13:19:43;;;;;;;9.73;6.70;;;;;;;;;;5041903;28;20033;-68
2021/03/02 13:22:09;;;;;;;18.63;7.50;;;;;;;;;;5042218;28;20025;-67
2021/03/02 13:24:35;;;;;;;14.27;7.03;;;;;;;;;;5043100;28;20113;-66
2021/03/02 13:27:02;;;;;;;15.27;8.52;;;;;;;;;;5041056;28;20045;-67
2021/03/02 13:29:29;;;;;;;7.95;6.20;;;;;;;;;;5041064;28;20108;-68
2021/03/02 13:31:56;;;;;;;14.95;7.15;;;;;;;;;;5042151;28;20107;-67
2021/03/02 13:34:25;;;;;;;16.20;9.05;;;;;;;;;;5038411;28;20111;-67
2021/03/02 13:36:51;;;;;;;9.50;6.60;;;;;;;;;;5039340;28;20471;-67
2021/03/02 13:39:18;;;;;;;18.20;8.93;;;;;;;;;;5040498;28;20029;-68
2021/03/02 13:41:46;;;;;;;12.00;8.35;;;;;;;;;;5041418;28;20029;-68
2021/03/02 13:44:16;;;;;;;12.70;6.32;;;;;;;;;;5043017;28;20491;-68
2021/03/02 13:46:44;;;;;;;11.02;7.07;;;;;;;;;;5038277;28;20052;-68
2021/03/02 13:49:10;;;;;;;11.45;6.90;;;;;;;;;;5042748;28;20013;-70
2021/03/02 13:51:37;;;;;;;10.07;6.38;;;;;;;;;;5042305;28;20040;-68
2021/03/02 13:54:03;;;;;;;14.10;7.55;;;;;;;;;;5025849;28;20372;-68
2021/03/02 13:56:29;;;;;;;12.25;7.72;;;;;;;;;;5040377;28;20044;-67
2021/03/02 13:58:55;;;;;;;13.65;7.30;;;;;;;;;;5041220;28;20383;-67
2021/03/02 14:01:22;;;;;;;8.07;7.28;;;;;;;;;;5042053;28;20057;-67
2021/03/02 14:03:49;;;;;;;16.25;9.85;;;;;;;;;;5040233;28;20071;-67
2021/03/02 14:06:15;;;;;;;13.55;8.40;;;;;;;;;;5038552;28;20041;-68
2021/03/02 14:08:41;;;;;;;19.80;9.77;;;;;;;;;;5037802;28;20029;-67
2021/03/02 14:11:11;;;;;;;21.10;11.43;;;;;;;;;;5041198;28;20375;-67
2021/03/02 14:13:37;;;;;;;17.75;10.88;;;;;;;;;;5039864;28;20056;-67
2021/03/02 14:16:05;;;;;;;19.05;9.68;;;;;;;;;;5038174;28;20091;-67
2021/03/02 14:18:33;;;;;;;13.35;8.15;;;;;;;;;;5039116;28;20099;-74
2021/03/02 14:20:59;;;;;;;15.10;7.97;;;;;;;;;;5042523;28;20035;-67
2021/03/02 14:23:26;;;;;;;18.20;11.13;;;;;;;;;;5036842;28;20106;-67
2021/03/02 14:25:52;;;;;;;20.77;11.55;;;;;;;;;;5040766;28;20033;-67
2021/03/02 14:28:18;;;;;;;22.40;11.68;;;;;;;;;;5039433;28;20075;-67
2021/03/02 14:30:46;;;;;;;15.57;11.65;;;;;;;;;;5034733;28;20029;-66
2021/03/02 14:33:12;;;;;;;19.42;10.38;;;;;;;;;;5039289;28;20033;-69
2021/03/02 14:35:38;;;;;;;18.60;10.77;;;;;;;;;;5039313;28;20053;-68
2021/03/02 14:38:05;;;;;;;18.48;9.48;;;;;;;;;;5038229;28;20107;-74
2021/03/02 14:40:31;;;;;;;20.35;9.73;;;;;;;;;;5040854;28;20503;-68